sensor_id;sensor_type;location;lat;lon;timestamp;P1;durP1;ratioP1;P2;durP2;ratioP2
27491;SDS011;14927;51.210;6.838;2023-01-15T00:00:26;3.78;;;1.25;;
27491;SDS011;14927;51.210;6.838;2023-01-15T00:03:10;4.93;;;1.00;;
27491;SDS011;14927;51.210;6.838;2023-01-15T00:05:55;5.97;;;0.80;;
27491;SDS011;14927;51.210;6.838;2023-01-15T00:08:45;3.83;;;0.82;;
27491;SDS011;14927;51.210;6.838;2023-01-15T00:11:30;6.20;;;0.80;;
27491;SDS011;14927;51.210;6.838;2023-01-15T00:14:14;3.97;;;0.82;;
27491;SDS011;14927;51.210;6.838;2023-01-15T00:16:59;5.10;;;0.77;;
27491;SDS011;14927;51.210;6.838;2023-01-15T00:19:45;5.57;;;1.80;;
27491;SDS011;14927;51.210;6.838;2023-01-15T00:22:29;4.65;;;0.63;;
27491;SDS011;14927;51.210;6.838;2023-01-15T00:25:14;3.70;;;0.90;;
27491;SDS011;14927;51.210;6.838;2023-01-15T00:28:17;3.05;;;0.70;;
27491;SDS011;14927;51.210;6.838;2023-01-15T00:31:02;1.45;;;0.50;;
27491;SDS011;14927;51.210;6.838;2023-01-15T00:33:47;3.67;;;0.60;;
27491;SDS011;14927;51.210;6.838;2023-01-15T00:36:31;2.63;;;0.50;;
27491;SDS011;14927;51.210;6.838;2023-01-15T00:39:16;1.58;;;0.50;;
27491;SDS011;14927;51.210;6.838;2023-01-15T00:42:01;1.27;;;0.40;;
27491;SDS011;14927;51.210;6.838;2023-01-15T00:44:46;4.00;;;0.85;;
27491;SDS011;14927;51.210;6.838;2023-01-15T00:47:30;1.65;;;0.57;;
27491;SDS011;14927;51.210;6.838;2023-01-15T00:50:15;2.80;;;0.55;;
27491;SDS011;14927;51.210;6.838;2023-01-15T00:53:00;2.03;;;0.60;;
27491;SDS011;14927;51.210;6.838;2023-01-15T00:55:44;3.03;;;0.50;;
27491;SDS011;14927;51.210;6.838;2023-01-15T00:58:29;2.47;;;0.47;;
27491;SDS011;14927;51.210;6.838;2023-01-15T01:01:14;1.90;;;0.30;;
27491;SDS011;14927;51.210;6.838;2023-01-15T01:03:59;1.52;;;0.50;;
27491;SDS011;14927;51.210;6.838;2023-01-15T01:06:44;2.03;;;0.60;;
27491;SDS011;14927;51.210;6.838;2023-01-15T01:09:28;2.38;;;0.65;;
27491;SDS011;14927;51.210;6.838;2023-01-15T01:12:13;2.05;;;0.60;;
27491;SDS011;14927;51.210;6.838;2023-01-15T01:15:04;2.88;;;0.50;;
27491;SDS011;14927;51.210;6.838;2023-01-15T01:17:49;1.75;;;0.50;;
27491;SDS011;14927;51.210;6.838;2023-01-15T01:20:34;1.23;;;0.43;;
27491;SDS011;14927;51.210;6.838;2023-01-15T01:23:21;2.17;;;0.30;;
27491;SDS011;14927;51.210;6.838;2023-01-15T01:26:07;1.10;;;0.30;;
27491;SDS011;14927;51.210;6.838;2023-01-15T01:28:53;1.58;;;0.60;;
27491;SDS011;14927;51.210;6.838;2023-01-15T01:31:37;1.70;;;0.50;;
27491;SDS011;14927;51.210;6.838;2023-01-15T01:34:22;4.07;;;0.60;;
27491;SDS011;14927;51.210;6.838;2023-01-15T01:37:07;1.50;;;0.35;;
27491;SDS011;14927;51.210;6.838;2023-01-15T01:39:51;2.67;;;0.50;;
27491;SDS011;14927;51.210;6.838;2023-01-15T01:42:36;3.35;;;0.45;;
27491;SDS011;14927;51.210;6.838;2023-01-15T01:48:12;3.08;;;0.50;;
27491;SDS011;14927;51.210;6.838;2023-01-15T01:51:00;1.75;;;0.40;;
27491;SDS011;14927;51.210;6.838;2023-01-15T01:53:49;1.73;;;0.40;;
27491;SDS011;14927;51.210;6.838;2023-01-15T01:56:34;1.75;;;0.52;;
27491;SDS011;14927;51.210;6.838;2023-01-15T01:59:19;4.50;;;0.50;;
27491;SDS011;14927;51.210;6.838;2023-01-15T02:02:06;3.67;;;0.70;;
27491;SDS011;14927;51.210;6.838;2023-01-15T02:04:50;3.92;;;0.60;;
27491;SDS011;14927;51.210;6.838;2023-01-15T02:07:35;1.58;;;0.50;;
27491;SDS011;14927;51.210;6.838;2023-01-15T02:10:20;3.03;;;0.47;;
27491;SDS011;14927;51.210;6.838;2023-01-15T02:13:24;1.65;;;0.38;;
27491;SDS011;14927;51.210;6.838;2023-01-15T02:23:14;3.83;;;0.50;;
27491;SDS011;14927;51.210;6.838;2023-01-15T02:32:39;2.38;;;0.30;;
27491;SDS011;14927;51.210;6.838;2023-01-15T02:35:29;2.53;;;0.53;;
27491;SDS011;14927;51.210;6.838;2023-01-15T02:38:21;3.08;;;0.50;;
27491;SDS011;14927;51.210;6.838;2023-01-15T02:41:07;2.25;;;0.40;;
27491;SDS011;14927;51.210;6.838;2023-01-15T02:43:58;2.90;;;0.40;;
27491;SDS011;14927;51.210;6.838;2023-01-15T02:46:46;1.70;;;0.43;;
27491;SDS011;14927;51.210;6.838;2023-01-15T02:49:32;4.45;;;0.47;;
27491;SDS011;14927;51.210;6.838;2023-01-15T02:52:19;2.60;;;0.40;;
27491;SDS011;14927;51.210;6.838;2023-01-15T02:55:22;2.83;;;0.50;;
27491;SDS011;14927;51.210;6.838;2023-01-15T02:58:13;2.30;;;0.40;;
27491;SDS011;14927;51.210;6.838;2023-01-15T03:01:12;5.45;;;0.52;;
27491;SDS011;14927;51.210;6.838;2023-01-15T03:04:05;4.88;;;0.88;;
27491;SDS011;14927;51.210;6.838;2023-01-15T03:07:00;1.25;;;0.43;;
27491;SDS011;14927;51.210;6.838;2023-01-15T03:09:59;2.63;;;0.40;;
27491;SDS011;14927;51.210;6.838;2023-01-15T03:12:49;2.83;;;0.50;;
27491;SDS011;14927;51.210;6.838;2023-01-15T03:22:02;3.67;;;0.90;;
27491;SDS011;14927;51.210;6.838;2023-01-15T03:25:12;4.75;;;1.00;;
27491;SDS011;14927;51.210;6.838;2023-01-15T03:28:04;3.10;;;1.05;;
27491;SDS011;14927;51.210;6.838;2023-01-15T03:30:49;4.18;;;1.02;;
27491;SDS011;14927;51.210;6.838;2023-01-15T03:33:34;2.30;;;1.17;;
27491;SDS011;14927;51.210;6.838;2023-01-15T03:36:19;3.10;;;0.95;;
27491;SDS011;14927;51.210;6.838;2023-01-15T03:39:03;7.10;;;1.38;;
27491;SDS011;14927;51.210;6.838;2023-01-15T03:48:00;4.25;;;0.80;;
27491;SDS011;14927;51.210;6.838;2023-01-15T03:51:17;4.78;;;0.90;;
27491;SDS011;14927;51.210;6.838;2023-01-15T03:54:28;4.22;;;1.02;;
27491;SDS011;14927;51.210;6.838;2023-01-15T03:57:27;4.63;;;0.80;;
27491;SDS011;14927;51.210;6.838;2023-01-15T04:00:22;5.35;;;0.60;;
27491;SDS011;14927;51.210;6.838;2023-01-15T04:03:11;4.50;;;0.65;;
27491;SDS011;14927;51.210;6.838;2023-01-15T04:05:59;4.45;;;1.13;;
27491;SDS011;14927;51.210;6.838;2023-01-15T04:08:46;3.72;;;0.77;;
27491;SDS011;14927;51.210;6.838;2023-01-15T04:11:31;5.00;;;0.50;;
27491;SDS011;14927;51.210;6.838;2023-01-15T04:14:16;4.32;;;0.90;;
27491;SDS011;14927;51.210;6.838;2023-01-15T04:17:00;3.97;;;0.90;;
27491;SDS011;14927;51.210;6.838;2023-01-15T04:19:45;6.15;;;0.98;;
27491;SDS011;14927;51.210;6.838;2023-01-15T04:22:30;5.40;;;0.73;;
27491;SDS011;14927;51.210;6.838;2023-01-15T04:25:14;4.55;;;0.80;;
27491;SDS011;14927;51.210;6.838;2023-01-15T04:27:59;10.18;;;1.10;;
27491;SDS011;14927;51.210;6.838;2023-01-15T04:30:44;5.85;;;0.95;;
27491;SDS011;14927;51.210;6.838;2023-01-15T04:33:29;6.18;;;0.80;;
27491;SDS011;14927;51.210;6.838;2023-01-15T04:36:14;4.95;;;0.80;;
27491;SDS011;14927;51.210;6.838;2023-01-15T04:38:58;3.97;;;0.50;;
27491;SDS011;14927;51.210;6.838;2023-01-15T04:41:43;4.78;;;0.68;;
27491;SDS011;14927;51.210;6.838;2023-01-15T04:44:46;7.47;;;0.93;;
27491;SDS011;14927;51.210;6.838;2023-01-15T04:47:31;7.72;;;0.80;;
27491;SDS011;14927;51.210;6.838;2023-01-15T04:50:15;7.72;;;1.00;;
27491;SDS011;14927;51.210;6.838;2023-01-15T04:53:00;6.18;;;1.40;;
27491;SDS011;14927;51.210;6.838;2023-01-15T04:55:44;5.65;;;1.20;;
27491;SDS011;14927;51.210;6.838;2023-01-15T04:58:29;4.75;;;0.90;;
27491;SDS011;14927;51.210;6.838;2023-01-15T05:01:15;6.47;;;0.98;;
27491;SDS011;14927;51.210;6.838;2023-01-15T05:04:00;4.57;;;0.80;;
27491;SDS011;14927;51.210;6.838;2023-01-15T05:06:45;8.18;;;1.00;;
27491;SDS011;14927;51.210;6.838;2023-01-15T05:09:30;5.57;;;1.08;;
27491;SDS011;14927;51.210;6.838;2023-01-15T05:12:14;6.47;;;0.77;;
27491;SDS011;14927;51.210;6.838;2023-01-15T05:14:59;6.88;;;1.27;;
27491;SDS011;14927;51.210;6.838;2023-01-15T05:17:43;9.35;;;0.90;;
27491;SDS011;14927;51.210;6.838;2023-01-15T05:20:28;10.85;;;0.95;;
27491;SDS011;14927;51.210;6.838;2023-01-15T05:23:16;8.32;;;1.08;;
27491;SDS011;14927;51.210;6.838;2023-01-15T05:26:03;9.90;;;1.23;;
27491;SDS011;14927;51.210;6.838;2023-01-15T05:28:48;7.35;;;1.05;;
27491;SDS011;14927;51.210;6.838;2023-01-15T05:31:40;8.35;;;1.08;;
27491;SDS011;14927;51.210;6.838;2023-01-15T05:34:27;8.20;;;0.98;;
27491;SDS011;14927;51.210;6.838;2023-01-15T05:37:12;8.18;;;1.10;;
27491;SDS011;14927;51.210;6.838;2023-01-15T05:39:56;11.23;;;1.75;;
27491;SDS011;14927;51.210;6.838;2023-01-15T05:42:41;8.85;;;1.33;;
27491;SDS011;14927;51.210;6.838;2023-01-15T05:45:25;8.65;;;1.23;;
27491;SDS011;14927;51.210;6.838;2023-01-15T05:48:10;13.15;;;1.58;;
27491;SDS011;14927;51.210;6.838;2023-01-15T05:50:55;8.05;;;1.15;;
27491;SDS011;14927;51.210;6.838;2023-01-15T05:53:40;7.53;;;1.25;;
27491;SDS011;14927;51.210;6.838;2023-01-15T05:56:24;6.07;;;0.95;;
27491;SDS011;14927;51.210;6.838;2023-01-15T05:59:09;9.63;;;1.20;;
27491;SDS011;14927;51.210;6.838;2023-01-15T06:01:54;9.68;;;1.33;;
27491;SDS011;14927;51.210;6.838;2023-01-15T06:04:39;4.93;;;1.17;;
27491;SDS011;14927;51.210;6.838;2023-01-15T06:07:24;8.45;;;1.15;;
27491;SDS011;14927;51.210;6.838;2023-01-15T06:10:08;7.63;;;1.02;;
27491;SDS011;14927;51.210;6.838;2023-01-15T06:12:53;9.10;;;1.42;;
27491;SDS011;14927;51.210;6.838;2023-01-15T06:15:38;5.82;;;0.90;;
27491;SDS011;14927;51.210;6.838;2023-01-15T06:18:23;6.50;;;1.05;;
27491;SDS011;14927;51.210;6.838;2023-01-15T06:21:08;11.57;;;1.45;;
27491;SDS011;14927;51.210;6.838;2023-01-15T06:23:54;8.73;;;1.23;;
27491;SDS011;14927;51.210;6.838;2023-01-15T06:26:39;8.73;;;1.25;;
27491;SDS011;14927;51.210;6.838;2023-01-15T06:29:24;7.40;;;1.20;;
27491;SDS011;14927;51.210;6.838;2023-01-15T06:32:09;5.18;;;0.90;;
27491;SDS011;14927;51.210;6.838;2023-01-15T06:34:54;6.50;;;1.02;;
27491;SDS011;14927;51.210;6.838;2023-01-15T06:37:38;7.93;;;1.27;;
27491;SDS011;14927;51.210;6.838;2023-01-15T06:40:23;4.35;;;0.82;;
27491;SDS011;14927;51.210;6.838;2023-01-15T06:43:09;9.63;;;1.10;;
27491;SDS011;14927;51.210;6.838;2023-01-15T06:46:13;8.73;;;1.60;;
27491;SDS011;14927;51.210;6.838;2023-01-15T06:49:18;4.97;;;0.90;;
27491;SDS011;14927;51.210;6.838;2023-01-15T06:52:03;6.63;;;0.90;;
27491;SDS011;14927;51.210;6.838;2023-01-15T06:54:48;6.43;;;0.82;;
27491;SDS011;14927;51.210;6.838;2023-01-15T06:57:33;5.68;;;0.85;;
27491;SDS011;14927;51.210;6.838;2023-01-15T07:00:17;8.80;;;1.20;;
27491;SDS011;14927;51.210;6.838;2023-01-15T07:03:02;4.82;;;0.90;;
27491;SDS011;14927;51.210;6.838;2023-01-15T07:05:48;5.07;;;1.10;;
27491;SDS011;14927;51.210;6.838;2023-01-15T07:08:33;7.18;;;0.93;;
27491;SDS011;14927;51.210;6.838;2023-01-15T07:11:18;7.30;;;1.17;;
27491;SDS011;14927;51.210;6.838;2023-01-15T07:14:02;5.65;;;0.95;;
27491;SDS011;14927;51.210;6.838;2023-01-15T07:16:50;13.65;;;1.98;;
27491;SDS011;14927;51.210;6.838;2023-01-15T07:19:35;6.78;;;1.08;;
27491;SDS011;14927;51.210;6.838;2023-01-15T07:22:20;6.32;;;1.23;;
27491;SDS011;14927;51.210;6.838;2023-01-15T07:25:05;4.97;;;0.98;;
27491;SDS011;14927;51.210;6.838;2023-01-15T07:27:50;6.85;;;1.08;;
27491;SDS011;14927;51.210;6.838;2023-01-15T07:30:35;6.57;;;1.48;;
27491;SDS011;14927;51.210;6.838;2023-01-15T07:33:20;6.07;;;1.25;;
27491;SDS011;14927;51.210;6.838;2023-01-15T07:36:04;7.97;;;0.95;;
27491;SDS011;14927;51.210;6.838;2023-01-15T07:38:49;5.57;;;1.23;;
27491;SDS011;14927;51.210;6.838;2023-01-15T07:41:34;6.22;;;0.85;;
27491;SDS011;14927;51.210;6.838;2023-01-15T07:44:38;6.35;;;0.80;;
27491;SDS011;14927;51.210;6.838;2023-01-15T07:47:41;7.43;;;1.40;;
27491;SDS011;14927;51.210;6.838;2023-01-15T07:50:45;6.68;;;1.33;;
27491;SDS011;14927;51.210;6.838;2023-01-15T07:53:29;7.45;;;1.33;;
27491;SDS011;14927;51.210;6.838;2023-01-15T07:56:14;8.57;;;1.55;;
27491;SDS011;14927;51.210;6.838;2023-01-15T07:58:58;6.15;;;1.10;;
27491;SDS011;14927;51.210;6.838;2023-01-15T08:01:46;5.53;;;1.17;;
27491;SDS011;14927;51.210;6.838;2023-01-15T08:04:31;5.88;;;1.25;;
27491;SDS011;14927;51.210;6.838;2023-01-15T08:07:16;5.75;;;0.70;;
27491;SDS011;14927;51.210;6.838;2023-01-15T08:10:00;11.35;;;1.30;;
27491;SDS011;14927;51.210;6.838;2023-01-15T08:12:47;7.15;;;1.15;;
27491;SDS011;14927;51.210;6.838;2023-01-15T08:15:52;5.68;;;0.98;;
27491;SDS011;14927;51.210;6.838;2023-01-15T08:18:37;5.88;;;0.90;;
27491;SDS011;14927;51.210;6.838;2023-01-15T08:21:21;4.90;;;0.77;;
27491;SDS011;14927;51.210;6.838;2023-01-15T08:24:06;8.88;;;0.98;;
27491;SDS011;14927;51.210;6.838;2023-01-15T08:26:51;2.92;;;0.50;;
27491;SDS011;14927;51.210;6.838;2023-01-15T08:29:36;8.68;;;1.30;;
27491;SDS011;14927;51.210;6.838;2023-01-15T08:32:21;4.70;;;1.02;;
27491;SDS011;14927;51.210;6.838;2023-01-15T08:35:07;3.35;;;0.70;;
27491;SDS011;14927;51.210;6.838;2023-01-15T08:37:52;3.25;;;0.88;;
27491;SDS011;14927;51.210;6.838;2023-01-15T08:40:37;3.50;;;0.55;;
27491;SDS011;14927;51.210;6.838;2023-01-15T08:43:41;1.92;;;0.70;;
27491;SDS011;14927;51.210;6.838;2023-01-15T08:46:28;1.30;;;0.38;;
27491;SDS011;14927;51.210;6.838;2023-01-15T08:49:13;1.55;;;0.40;;
27491;SDS011;14927;51.210;6.838;2023-01-15T08:51:57;2.53;;;0.50;;
27491;SDS011;14927;51.210;6.838;2023-01-15T08:54:43;3.55;;;0.85;;
27491;SDS011;14927;51.210;6.838;2023-01-15T08:57:28;3.10;;;0.75;;
27491;SDS011;14927;51.210;6.838;2023-01-15T09:00:12;4.90;;;0.40;;
27491;SDS011;14927;51.210;6.838;2023-01-15T09:02:58;3.25;;;0.50;;
27491;SDS011;14927;51.210;6.838;2023-01-15T09:05:43;5.68;;;0.73;;
27491;SDS011;14927;51.210;6.838;2023-01-15T09:08:27;5.10;;;0.70;;
27491;SDS011;14927;51.210;6.838;2023-01-15T09:11:13;3.25;;;0.38;;
27491;SDS011;14927;51.210;6.838;2023-01-15T09:13:58;3.25;;;0.60;;
27491;SDS011;14927;51.210;6.838;2023-01-15T09:16:42;2.65;;;0.52;;
27491;SDS011;14927;51.210;6.838;2023-01-15T09:19:27;5.32;;;1.23;;
27491;SDS011;14927;51.210;6.838;2023-01-15T09:27:34;5.82;;;1.00;;
27491;SDS011;14927;51.210;6.838;2023-01-15T09:30:20;4.40;;;1.05;;
27491;SDS011;14927;51.210;6.838;2023-01-15T09:33:05;6.18;;;1.00;;
27491;SDS011;14927;51.210;6.838;2023-01-15T09:35:50;4.30;;;0.82;;
27491;SDS011;14927;51.210;6.838;2023-01-15T09:38:35;8.93;;;0.90;;
27491;SDS011;14927;51.210;6.838;2023-01-15T09:41:20;5.47;;;1.10;;
27491;SDS011;14927;51.210;6.838;2023-01-15T09:44:46;5.95;;;0.88;;
27491;SDS011;14927;51.210;6.838;2023-01-15T09:47:58;9.15;;;1.20;;
27491;SDS011;14927;51.210;6.838;2023-01-15T09:57:34;8.02;;;1.08;;
27491;SDS011;14927;51.210;6.838;2023-01-15T10:00:25;5.88;;;1.27;;
27491;SDS011;14927;51.210;6.838;2023-01-15T10:03:44;11.32;;;1.63;;
27491;SDS011;14927;51.210;6.838;2023-01-15T10:06:37;9.65;;;1.17;;
27491;SDS011;14927;51.210;6.838;2023-01-15T10:13:06;9.88;;;1.40;;
27491;SDS011;14927;51.210;6.838;2023-01-15T10:16:05;12.90;;;1.58;;
27491;SDS011;14927;51.210;6.838;2023-01-15T10:18:55;6.05;;;0.95;;
27491;SDS011;14927;51.210;6.838;2023-01-15T10:24:59;8.48;;;1.27;;
27491;SDS011;14927;51.210;6.838;2023-01-15T10:27:55;10.20;;;0.95;;
27491;SDS011;14927;51.210;6.838;2023-01-15T10:30:55;7.40;;;1.13;;
27491;SDS011;14927;51.210;6.838;2023-01-15T10:37:26;12.95;;;1.83;;
27491;SDS011;14927;51.210;6.838;2023-01-15T10:43:45;9.55;;;1.48;;
27491;SDS011;14927;51.210;6.838;2023-01-15T10:47:06;7.85;;;1.52;;
27491;SDS011;14927;51.210;6.838;2023-01-15T10:49:58;13.23;;;1.45;;
27491;SDS011;14927;51.210;6.838;2023-01-15T10:56:04;6.97;;;1.50;;
27491;SDS011;14927;51.210;6.838;2023-01-15T10:59:18;6.07;;;1.25;;
27491;SDS011;14927;51.210;6.838;2023-01-15T11:05:34;7.72;;;1.02;;
27491;SDS011;14927;51.210;6.838;2023-01-15T11:08:24;10.57;;;1.40;;
27491;SDS011;14927;51.210;6.838;2023-01-15T11:11:24;9.65;;;1.20;;
27491;SDS011;14927;51.210;6.838;2023-01-15T11:17:44;8.57;;;1.52;;
27491;SDS011;14927;51.210;6.838;2023-01-15T11:20:48;9.82;;;1.67;;
27491;SDS011;14927;51.210;6.838;2023-01-15T11:23:34;13.63;;;1.40;;
27491;SDS011;14927;51.210;6.838;2023-01-15T11:26:20;9.30;;;1.20;;
27491;SDS011;14927;51.210;6.838;2023-01-15T11:29:14;6.47;;;0.95;;
27491;SDS011;14927;51.210;6.838;2023-01-15T11:32:30;6.95;;;1.33;;
27491;SDS011;14927;51.210;6.838;2023-01-15T11:35:20;6.18;;;0.95;;
27491;SDS011;14927;51.210;6.838;2023-01-15T11:38:05;5.60;;;1.00;;
27491;SDS011;14927;51.210;6.838;2023-01-15T11:41:00;6.55;;;1.08;;
27491;SDS011;14927;51.210;6.838;2023-01-15T11:43:57;9.20;;;1.00;;
27491;SDS011;14927;51.210;6.838;2023-01-15T11:47:00;5.55;;;0.80;;
27491;SDS011;14927;51.210;6.838;2023-01-15T11:50:15;5.45;;;1.08;;
27491;SDS011;14927;51.210;6.838;2023-01-15T11:53:24;6.22;;;0.90;;
27491;SDS011;14927;51.210;6.838;2023-01-15T11:56:26;6.03;;;1.15;;
27491;SDS011;14927;51.210;6.838;2023-01-15T11:59:15;5.10;;;0.90;;
27491;SDS011;14927;51.210;6.838;2023-01-15T12:02:28;6.55;;;0.90;;
27491;SDS011;14927;51.210;6.838;2023-01-15T12:05:24;4.70;;;0.77;;
27491;SDS011;14927;51.210;6.838;2023-01-15T12:09:14;4.88;;;1.25;;
27491;SDS011;14927;51.210;6.838;2023-01-15T12:17:45;3.67;;;0.80;;
27491;SDS011;14927;51.210;6.838;2023-01-15T12:30:12;4.18;;;0.80;;
27491;SDS011;14927;51.210;6.838;2023-01-15T12:36:23;2.60;;;0.52;;
27491;SDS011;14927;51.210;6.838;2023-01-15T12:39:16;2.72;;;0.60;;
27491;SDS011;14927;51.210;6.838;2023-01-15T12:42:07;4.40;;;0.65;;
27491;SDS011;14927;51.210;6.838;2023-01-15T12:45:19;5.25;;;0.98;;
27491;SDS011;14927;51.210;6.838;2023-01-15T12:51:10;5.07;;;0.82;;
27491;SDS011;14927;51.210;6.838;2023-01-15T12:54:09;5.22;;;0.88;;
27491;SDS011;14927;51.210;6.838;2023-01-15T12:57:08;3.88;;;0.77;;
27491;SDS011;14927;51.210;6.838;2023-01-15T13:03:14;4.35;;;0.55;;
27491;SDS011;14927;51.210;6.838;2023-01-15T13:06:46;3.85;;;0.60;;
27491;SDS011;14927;51.210;6.838;2023-01-15T13:09:42;5.97;;;1.27;;
27491;SDS011;14927;51.210;6.838;2023-01-15T13:12:50;3.88;;;0.60;;
27491;SDS011;14927;51.210;6.838;2023-01-15T13:15:57;7.85;;;0.90;;
27491;SDS011;14927;51.210;6.838;2023-01-15T13:22:17;5.95;;;0.82;;
27491;SDS011;14927;51.210;6.838;2023-01-15T13:32:25;3.53;;;0.73;;
27491;SDS011;14927;51.210;6.838;2023-01-15T13:35:29;2.25;;;0.60;;
27491;SDS011;14927;51.210;6.838;2023-01-15T13:38:21;4.53;;;1.10;;
27491;SDS011;14927;51.210;6.838;2023-01-15T13:41:17;3.42;;;0.65;;
27491;SDS011;14927;51.210;6.838;2023-01-15T13:44:31;4.65;;;0.77;;
27491;SDS011;14927;51.210;6.838;2023-01-15T13:47:24;4.03;;;0.90;;
27491;SDS011;14927;51.210;6.838;2023-01-15T13:50:13;6.00;;;1.00;;
27491;SDS011;14927;51.210;6.838;2023-01-15T13:53:15;5.90;;;1.10;;
27491;SDS011;14927;51.210;6.838;2023-01-15T13:56:09;8.38;;;1.30;;
27491;SDS011;14927;51.210;6.838;2023-01-15T14:01:45;2.60;;;1.10;;
27491;SDS011;14927;51.210;6.838;2023-01-15T14:04:37;5.72;;;0.82;;
27491;SDS011;14927;51.210;6.838;2023-01-15T14:07:33;4.95;;;0.88;;
27491;SDS011;14927;51.210;6.838;2023-01-15T14:10:23;2.97;;;0.68;;
27491;SDS011;14927;51.210;6.838;2023-01-15T14:13:27;5.93;;;0.88;;
27491;SDS011;14927;51.210;6.838;2023-01-15T14:23:53;9.30;;;0.80;;
27491;SDS011;14927;51.210;6.838;2023-01-15T14:30:12;2.55;;;0.70;;
27491;SDS011;14927;51.210;6.838;2023-01-15T14:36:56;4.65;;;0.68;;
27491;SDS011;14927;51.210;6.838;2023-01-15T14:43:30;3.47;;;0.65;;
27491;SDS011;14927;51.210;6.838;2023-01-15T14:46:33;3.83;;;0.70;;
27491;SDS011;14927;51.210;6.838;2023-01-15T14:52:08;2.83;;;0.60;;
27491;SDS011;14927;51.210;6.838;2023-01-15T14:54:59;3.78;;;0.40;;
27491;SDS011;14927;51.210;6.838;2023-01-15T14:57:57;7.03;;;0.70;;
27491;SDS011;14927;51.210;6.838;2023-01-15T15:00:52;2.72;;;0.82;;
27491;SDS011;14927;51.210;6.838;2023-01-15T15:03:57;4.22;;;0.77;;
27491;SDS011;14927;51.210;6.838;2023-01-15T15:07:16;2.65;;;0.63;;
27491;SDS011;14927;51.210;6.838;2023-01-15T15:10:23;5.60;;;1.00;;
27491;SDS011;14927;51.210;6.838;2023-01-15T15:13:32;3.55;;;0.77;;
27491;SDS011;14927;51.210;6.838;2023-01-15T15:16:27;4.15;;;0.90;;
27491;SDS011;14927;51.210;6.838;2023-01-15T15:19:26;4.20;;;0.82;;
27491;SDS011;14927;51.210;6.838;2023-01-15T15:22:17;3.50;;;0.68;;
27491;SDS011;14927;51.210;6.838;2023-01-15T15:25:16;4.18;;;0.65;;
27491;SDS011;14927;51.210;6.838;2023-01-15T15:28:08;3.78;;;0.68;;
27491;SDS011;14927;51.210;6.838;2023-01-15T15:30:58;4.70;;;0.70;;
27491;SDS011;14927;51.210;6.838;2023-01-15T15:33:49;4.90;;;0.73;;
27491;SDS011;14927;51.210;6.838;2023-01-15T15:36:34;5.80;;;0.73;;
27491;SDS011;14927;51.210;6.838;2023-01-15T15:39:34;2.65;;;0.75;;
27491;SDS011;14927;51.210;6.838;2023-01-15T15:49:55;3.78;;;0.50;;
27491;SDS011;14927;51.210;6.838;2023-01-15T15:52:49;3.10;;;0.70;;
27491;SDS011;14927;51.210;6.838;2023-01-15T15:55:39;2.55;;;0.60;;
27491;SDS011;14927;51.210;6.838;2023-01-15T15:58:33;3.63;;;0.63;;
27491;SDS011;14927;51.210;6.838;2023-01-15T16:01:22;2.97;;;0.60;;
27491;SDS011;14927;51.210;6.838;2023-01-15T16:04:22;4.00;;;0.75;;
27491;SDS011;14927;51.210;6.838;2023-01-15T16:07:25;3.40;;;0.77;;
27491;SDS011;14927;51.210;6.838;2023-01-15T16:10:18;5.13;;;0.70;;
27491;SDS011;14927;51.210;6.838;2023-01-15T16:13:15;4.07;;;0.68;;
27491;SDS011;14927;51.210;6.838;2023-01-15T16:16:31;4.43;;;0.88;;
27491;SDS011;14927;51.210;6.838;2023-01-15T16:19:17;3.13;;;0.70;;
27491;SDS011;14927;51.210;6.838;2023-01-15T16:22:06;4.53;;;0.90;;
27491;SDS011;14927;51.210;6.838;2023-01-15T16:24:54;6.07;;;1.05;;
27491;SDS011;14927;51.210;6.838;2023-01-15T16:27:50;10.07;;;0.70;;
27491;SDS011;14927;51.210;6.838;2023-01-15T16:30:36;2.90;;;0.85;;
27491;SDS011;14927;51.210;6.838;2023-01-15T16:33:27;4.20;;;1.05;;
27491;SDS011;14927;51.210;6.838;2023-01-15T16:36:12;3.60;;;0.95;;
27491;SDS011;14927;51.210;6.838;2023-01-15T16:38:57;2.97;;;0.70;;
27491;SDS011;14927;51.210;6.838;2023-01-15T16:41:42;3.70;;;0.70;;
27491;SDS011;14927;51.210;6.838;2023-01-15T16:44:33;3.13;;;0.63;;
27491;SDS011;14927;51.210;6.838;2023-01-15T16:51:02;3.43;;;0.90;;
27491;SDS011;14927;51.210;6.838;2023-01-15T16:57:30;4.90;;;1.00;;
27491;SDS011;14927;51.210;6.838;2023-01-15T17:00:26;2.75;;;0.80;;
27491;SDS011;14927;51.210;6.838;2023-01-15T17:03:26;3.40;;;1.05;;
27491;SDS011;14927;51.210;6.838;2023-01-15T17:06:13;6.90;;;1.27;;
27491;SDS011;14927;51.210;6.838;2023-01-15T17:08:59;5.97;;;1.08;;
27491;SDS011;14927;51.210;6.838;2023-01-15T17:11:43;3.17;;;0.95;;
27491;SDS011;14927;51.210;6.838;2023-01-15T17:14:34;5.10;;;1.25;;
27491;SDS011;14927;51.210;6.838;2023-01-15T17:20:09;4.22;;;0.90;;
27491;SDS011;14927;51.210;6.838;2023-01-15T17:22:56;14.07;;;1.20;;
27491;SDS011;14927;51.210;6.838;2023-01-15T17:25:40;4.43;;;0.77;;
27491;SDS011;14927;51.210;6.838;2023-01-15T17:28:25;3.40;;;0.82;;
27491;SDS011;14927;51.210;6.838;2023-01-15T17:31:31;3.00;;;0.88;;
27491;SDS011;14927;51.210;6.838;2023-01-15T17:34:16;3.45;;;0.70;;
27491;SDS011;14927;51.210;6.838;2023-01-15T17:37:05;5.63;;;1.02;;
27491;SDS011;14927;51.210;6.838;2023-01-15T17:39:50;1.88;;;0.60;;
27491;SDS011;14927;51.210;6.838;2023-01-15T17:42:35;7.60;;;1.40;;
27491;SDS011;14927;51.210;6.838;2023-01-15T17:45:21;4.63;;;1.20;;
27491;SDS011;14927;51.210;6.838;2023-01-15T17:48:12;3.15;;;0.70;;
27491;SDS011;14927;51.210;6.838;2023-01-15T17:51:00;3.47;;;0.80;;
27491;SDS011;14927;51.210;6.838;2023-01-15T17:53:46;3.97;;;0.87;;
27491;SDS011;14927;51.210;6.838;2023-01-15T17:56:31;3.72;;;0.80;;
27491;SDS011;14927;51.210;6.838;2023-01-15T17:59:34;4.10;;;0.80;;
27491;SDS011;14927;51.210;6.838;2023-01-15T18:02:37;4.22;;;0.85;;
27491;SDS011;14927;51.210;6.838;2023-01-15T18:05:42;3.20;;;0.73;;
27491;SDS011;14927;51.210;6.838;2023-01-15T18:08:30;4.85;;;1.00;;
27491;SDS011;14927;51.210;6.838;2023-01-15T18:11:16;5.03;;;1.13;;
27491;SDS011;14927;51.210;6.838;2023-01-15T18:14:01;2.08;;;0.80;;
27491;SDS011;14927;51.210;6.838;2023-01-15T18:16:46;5.07;;;1.33;;
27491;SDS011;14927;51.210;6.838;2023-01-15T18:19:30;3.88;;;0.82;;
27491;SDS011;14927;51.210;6.838;2023-01-15T18:22:15;5.05;;;1.60;;
27491;SDS011;14927;51.210;6.838;2023-01-15T18:25:01;4.53;;;1.20;;
27491;SDS011;14927;51.210;6.838;2023-01-15T18:27:48;6.03;;;1.50;;
27491;SDS011;14927;51.210;6.838;2023-01-15T18:30:33;4.70;;;1.63;;
27491;SDS011;14927;51.210;6.838;2023-01-15T18:33:17;4.07;;;0.93;;
27491;SDS011;14927;51.210;6.838;2023-01-15T18:36:07;2.35;;;0.85;;
27491;SDS011;14927;51.210;6.838;2023-01-15T18:38:54;5.40;;;1.30;;
27491;SDS011;14927;51.210;6.838;2023-01-15T18:41:45;4.75;;;1.20;;
27491;SDS011;14927;51.210;6.838;2023-01-15T18:44:29;4.25;;;1.17;;
27491;SDS011;14927;51.210;6.838;2023-01-15T18:47:33;4.53;;;0.80;;
27491;SDS011;14927;51.210;6.838;2023-01-15T18:50:18;3.10;;;1.10;;
27491;SDS011;14927;51.210;6.838;2023-01-15T18:53:06;4.85;;;1.25;;
27491;SDS011;14927;51.210;6.838;2023-01-15T18:55:51;3.67;;;0.88;;
27491;SDS011;14927;51.210;6.838;2023-01-15T18:58:35;7.28;;;1.33;;
27491;SDS011;14927;51.210;6.838;2023-01-15T19:01:21;3.97;;;1.13;;
27491;SDS011;14927;51.210;6.838;2023-01-15T19:04:06;4.95;;;1.65;;
27491;SDS011;14927;51.210;6.838;2023-01-15T19:06:53;5.65;;;1.33;;
27491;SDS011;14927;51.210;6.838;2023-01-15T19:09:39;6.78;;;1.23;;
27491;SDS011;14927;51.210;6.838;2023-01-15T19:12:24;4.80;;;1.58;;
27491;SDS011;14927;51.210;6.838;2023-01-15T19:15:09;6.05;;;1.77;;
27491;SDS011;14927;51.210;6.838;2023-01-15T19:18:17;6.75;;;1.75;;
27491;SDS011;14927;51.210;6.838;2023-01-15T19:21:22;7.00;;;1.88;;
27491;SDS011;14927;51.210;6.838;2023-01-15T19:24:07;4.82;;;1.42;;
27491;SDS011;14927;51.210;6.838;2023-01-15T19:26:52;6.07;;;1.30;;
27491;SDS011;14927;51.210;6.838;2023-01-15T19:29:36;5.47;;;1.23;;